sensor_id;sensor_type;location;lat;lon;timestamp;pressure;altitude;pressure_sealevel;temperature;humidity
61914;BME280;50095;53.336;-1.488;2022-09-02T00:01:13;100324.44;;;20.30;54.57
61914;BME280;50095;53.336;-1.488;2022-09-02T00:03:40;100322.05;;;20.07;53.72
61914;BME280;50095;53.336;-1.488;2022-09-02T00:06:08;100320.08;;;20.59;52.77
61914;BME280;50095;53.336;-1.488;2022-09-02T00:08:36;100318.68;;;20.97;52.34
61914;BME280;50095;53.336;-1.488;2022-09-02T00:11:04;100319.40;;;20.53;53.27
61914;BME280;50095;53.336;-1.488;2022-09-02T00:13:32;100315.36;;;20.32;53.56
61914;BME280;50095;53.336;-1.488;2022-09-02T00:16:02;100311.59;;;20.43;52.68
61914;BME280;50095;53.336;-1.488;2022-09-02T00:18:30;100311.30;;;20.32;53.53
61914;BME280;50095;53.336;-1.488;2022-09-02T00:20:58;100311.28;;;19.92;53.18
61914;BME280;50095;53.336;-1.488;2022-09-02T00:23:26;100311.75;;;20.29;52.83
61914;BME280;50095;53.336;-1.488;2022-09-02T00:25:53;100312.10;;;20.41;51.96
61914;BME280;50095;53.336;-1.488;2022-09-02T00:28:20;100307.13;;;19.53;55.10
61914;BME280;50095;53.336;-1.488;2022-09-02T00:30:48;100303.69;;;19.95;54.59
61914;BME280;50095;53.336;-1.488;2022-09-02T00:33:15;100300.56;;;19.98;54.38
61914;BME280;50095;53.336;-1.488;2022-09-02T00:35:42;100299.85;;;20.42;53.88
61914;BME280;50095;53.336;-1.488;2022-09-02T00:38:10;100298.69;;;20.45;53.95
61914;BME280;50095;53.336;-1.488;2022-09-02T00:40:42;100295.83;;;20.34;53.55
61914;BME280;50095;53.336;-1.488;2022-09-02T00:43:10;100292.56;;;20.21;54.32
61914;BME280;50095;53.336;-1.488;2022-09-02T00:45:38;100286.92;;;20.43;53.35
61914;BME280;50095;53.336;-1.488;2022-09-02T00:48:06;100286.71;;;19.71;53.95
61914;BME280;50095;53.336;-1.488;2022-09-02T00:50:35;100288.05;;;20.18;53.70
61914;BME280;50095;53.336;-1.488;2022-09-02T00:53:05;100281.47;;;19.79;54.03
61914;BME280;50095;53.336;-1.488;2022-09-02T00:55:37;100276.66;;;20.42;53.59
61914;BME280;50095;53.336;-1.488;2022-09-02T00:58:09;100273.83;;;19.86;54.29
61914;BME280;50095;53.336;-1.488;2022-09-02T01:00:42;100271.41;;;20.52;54.29
61914;BME280;50095;53.336;-1.488;2022-09-02T01:03:14;100264.13;;;20.59;53.02
61914;BME280;50095;53.336;-1.488;2022-09-02T01:05:44;100267.37;;;20.09;53.95
61914;BME280;50095;53.336;-1.488;2022-09-02T01:08:14;100267.10;;;20.23;54.17
61914;BME280;50095;53.336;-1.488;2022-09-02T01:10:42;100261.48;;;20.57;53.12
61914;BME280;50095;53.336;-1.488;2022-09-02T01:13:12;100256.00;;;20.59;53.63
61914;BME280;50095;53.336;-1.488;2022-09-02T01:15:42;100252.15;;;20.79;52.68
61914;BME280;50095;53.336;-1.488;2022-09-02T01:18:17;100247.18;;;20.73;53.00
61914;BME280;50095;53.336;-1.488;2022-09-02T01:20:46;100243.74;;;20.42;53.82
61914;BME280;50095;53.336;-1.488;2022-09-02T01:23:14;100242.50;;;20.56;53.73
61914;BME280;50095;53.336;-1.488;2022-09-02T01:25:43;100235.71;;;20.60;52.99
61914;BME280;50095;53.336;-1.488;2022-09-02T01:28:13;100230.60;;;20.16;54.02
61914;BME280;50095;53.336;-1.488;2022-09-02T01:30:44;100232.76;;;19.97;55.14
61914;BME280;50095;53.336;-1.488;2022-09-02T01:33:13;100233.68;;;20.08;54.82
61914;BME280;50095;53.336;-1.488;2022-09-02T01:35:41;100233.05;;;20.39;54.50
61914;BME280;50095;53.336;-1.488;2022-09-02T01:38:09;100230.98;;;20.34;54.60
61914;BME280;50095;53.336;-1.488;2022-09-02T01:40:37;100226.69;;;20.63;53.80
61914;BME280;50095;53.336;-1.488;2022-09-02T01:43:08;100232.35;;;20.34;55.40
61914;BME280;50095;53.336;-1.488;2022-09-02T01:45:36;100229.14;;;20.44;54.18
61914;BME280;50095;53.336;-1.488;2022-09-02T01:48:06;100223.68;;;20.32;55.06
61914;BME280;50095;53.336;-1.488;2022-09-02T01:50:35;100223.16;;;20.52;54.63
61914;BME280;50095;53.336;-1.488;2022-09-02T01:53:03;100222.82;;;19.78;54.98
61914;BME280;50095;53.336;-1.488;2022-09-02T01:55:30;100220.53;;;20.03;55.37
61914;BME280;50095;53.336;-1.488;2022-09-02T01:57:58;100215.16;;;20.42;54.72
61914;BME280;50095;53.336;-1.488;2022-09-02T02:00:27;100210.73;;;19.96;54.74
61914;BME280;50095;53.336;-1.488;2022-09-02T02:02:54;100204.50;;;20.29;55.02
61914;BME280;50095;53.336;-1.488;2022-09-02T02:05:23;100201.95;;;20.46;54.65
61914;BME280;50095;53.336;-1.488;2022-09-02T02:07:50;100197.94;;;20.37;54.47
61914;BME280;50095;53.336;-1.488;2022-09-02T02:10:19;100195.89;;;19.71;54.68
61914;BME280;50095;53.336;-1.488;2022-09-02T02:12:47;100196.15;;;19.90;55.28
61914;BME280;50095;53.336;-1.488;2022-09-02T02:15:16;100195.50;;;19.64;56.75
61914;BME280;50095;53.336;-1.488;2022-09-02T02:17:44;100198.70;;;19.84;56.25
61914;BME280;50095;53.336;-1.488;2022-09-02T02:20:14;100192.72;;;19.61;55.92
61914;BME280;50095;53.336;-1.488;2022-09-02T02:22:42;100194.25;;;19.17;58.38
61914;BME280;50095;53.336;-1.488;2022-09-02T02:25:11;100193.26;;;19.78;57.07
61914;BME280;50095;53.336;-1.488;2022-09-02T02:27:39;100189.44;;;19.70;57.43
61914;BME280;50095;53.336;-1.488;2022-09-02T02:30:09;100186.01;;;19.60;57.37
61914;BME280;50095;53.336;-1.488;2022-09-02T02:32:36;100173.31;;;20.30;56.91
61914;BME280;50095;53.336;-1.488;2022-09-02T02:35:04;100168.97;;;20.01;57.15
61914;BME280;50095;53.336;-1.488;2022-09-02T02:37:32;100167.03;;;19.78;56.51
61914;BME280;50095;53.336;-1.488;2022-09-02T02:40:00;100164.43;;;19.99;56.52
61914;BME280;50095;53.336;-1.488;2022-09-02T02:42:27;100164.92;;;20.27;55.75
61914;BME280;50095;53.336;-1.488;2022-09-02T02:44:55;100163.40;;;19.80;56.68
61914;BME280;50095;53.336;-1.488;2022-09-02T02:47:22;100163.68;;;20.45;56.30
61914;BME280;50095;53.336;-1.488;2022-09-02T02:49:50;100161.03;;;20.32;56.03
61914;BME280;50095;53.336;-1.488;2022-09-02T02:52:18;100159.89;;;20.09;56.35
61914;BME280;50095;53.336;-1.488;2022-09-02T02:54:45;100157.15;;;20.17;56.33
61914;BME280;50095;53.336;-1.488;2022-09-02T02:57:12;100157.70;;;20.22;55.66
61914;BME280;50095;53.336;-1.488;2022-09-02T02:59:40;100153.05;;;20.30;55.49
61914;BME280;50095;53.336;-1.488;2022-09-02T03:02:08;100154.23;;;20.52;56.09
61914;BME280;50095;53.336;-1.488;2022-09-02T03:04:35;100153.02;;;19.84;56.45
61914;BME280;50095;53.336;-1.488;2022-09-02T03:07:04;100152.79;;;20.07;56.11
61914;BME280;50095;53.336;-1.488;2022-09-02T03:09:30;100150.16;;;20.31;56.33
61914;BME280;50095;53.336;-1.488;2022-09-02T03:11:58;100151.09;;;19.60;56.64
61914;BME280;50095;53.336;-1.488;2022-09-02T03:14:25;100150.54;;;19.40;57.98
61914;BME280;50095;53.336;-1.488;2022-09-02T03:16:52;100145.19;;;19.72;56.94
61914;BME280;50095;53.336;-1.488;2022-09-02T03:19:20;100142.60;;;19.77;57.10
61914;BME280;50095;53.336;-1.488;2022-09-02T03:21:46;100145.13;;;19.27;57.17
61914;BME280;50095;53.336;-1.488;2022-09-02T03:24:14;100143.86;;;19.60;57.70
61914;BME280;50095;53.336;-1.488;2022-09-02T03:26:43;100137.16;;;19.68;57.35
61914;BME280;50095;53.336;-1.488;2022-09-02T03:29:10;100137.11;;;19.57;57.08
61914;BME280;50095;53.336;-1.488;2022-09-02T03:31:38;100135.70;;;20.05;55.94
61914;BME280;50095;53.336;-1.488;2022-09-02T03:34:05;100133.66;;;19.58;55.88
61914;BME280;50095;53.336;-1.488;2022-09-02T03:36:35;100133.37;;;20.07;55.79
61914;BME280;50095;53.336;-1.488;2022-09-02T03:39:04;100131.13;;;19.73;55.90
61914;BME280;50095;53.336;-1.488;2022-09-02T03:41:32;100131.04;;;19.99;56.00
61914;BME280;50095;53.336;-1.488;2022-09-02T03:44:00;100130.22;;;19.78;56.41
61914;BME280;50095;53.336;-1.488;2022-09-02T03:46:27;100133.02;;;19.48;56.30
61914;BME280;50095;53.336;-1.488;2022-09-02T03:48:55;100130.80;;;19.45;57.16
61914;BME280;50095;53.336;-1.488;2022-09-02T03:51:24;100128.84;;;20.05;56.09
61914;BME280;50095;53.336;-1.488;2022-09-02T03:53:52;100125.65;;;19.78;56.93
61914;BME280;50095;53.336;-1.488;2022-09-02T03:56:20;100119.44;;;19.78;55.98
61914;BME280;50095;53.336;-1.488;2022-09-02T03:58:50;100119.72;;;19.66;56.28
61914;BME280;50095;53.336;-1.488;2022-09-02T04:01:19;100118.76;;;19.69;55.95
61914;BME280;50095;53.336;-1.488;2022-09-02T04:03:47;100117.28;;;20.32;55.79
61914;BME280;50095;53.336;-1.488;2022-09-02T04:06:16;100116.35;;;19.74;55.45
61914;BME280;50095;53.336;-1.488;2022-09-02T04:08:44;100110.67;;;19.84;55.46
61914;BME280;50095;53.336;-1.488;2022-09-02T04:11:14;100110.48;;;18.68;57.48
61914;BME280;50095;53.336;-1.488;2022-09-02T04:13:42;100104.57;;;19.59;56.66
61914;BME280;50095;53.336;-1.488;2022-09-02T04:16:11;100103.04;;;18.97;58.28
61914;BME280;50095;53.336;-1.488;2022-09-02T04:18:39;100096.46;;;19.42;57.19
61914;BME280;50095;53.336;-1.488;2022-09-02T04:21:08;100101.04;;;19.29;57.86
61914;BME280;50095;53.336;-1.488;2022-09-02T04:23:35;100095.76;;;19.36;57.57
61914;BME280;50095;53.336;-1.488;2022-09-02T04:26:05;100094.43;;;19.11;57.26
61914;BME280;50095;53.336;-1.488;2022-09-02T04:28:33;100094.32;;;19.83;55.66
61914;BME280;50095;53.336;-1.488;2022-09-02T04:31:03;100091.05;;;19.44;55.92
61914;BME280;50095;53.336;-1.488;2022-09-02T04:33:30;100094.25;;;19.59;56.11
61914;BME280;50095;53.336;-1.488;2022-09-02T04:35:58;100097.30;;;19.78;55.89
61914;BME280;50095;53.336;-1.488;2022-09-02T04:38:25;100095.00;;;19.78;55.95
61914;BME280;50095;53.336;-1.488;2022-09-02T04:40:52;100097.47;;;20.10;55.17
61914;BME280;50095;53.336;-1.488;2022-09-02T04:43:19;100096.27;;;20.04;55.35
61914;BME280;50095;53.336;-1.488;2022-09-02T04:45:46;100096.15;;;19.67;55.38
61914;BME280;50095;53.336;-1.488;2022-09-02T04:48:14;100095.34;;;19.59;55.10
61914;BME280;50095;53.336;-1.488;2022-09-02T04:50:41;100097.40;;;20.00;55.19
61914;BME280;50095;53.336;-1.488;2022-09-02T04:53:09;100095.29;;;19.69;56.21
61914;BME280;50095;53.336;-1.488;2022-09-02T04:55:38;100093.96;;;19.87;55.97
61914;BME280;50095;53.336;-1.488;2022-09-02T04:58:06;100093.46;;;19.44;57.25
61914;BME280;50095;53.336;-1.488;2022-09-02T05:00:33;100095.90;;;19.08;57.89
61914;BME280;50095;53.336;-1.488;2022-09-02T05:03:01;100096.09;;;19.01;57.87
61914;BME280;50095;53.336;-1.488;2022-09-02T05:05:28;100092.01;;;18.96;58.54
61914;BME280;50095;53.336;-1.488;2022-09-02T05:07:55;100087.92;;;18.90;57.37
61914;BME280;50095;53.336;-1.488;2022-09-02T05:10:23;100087.28;;;19.65;57.04
61914;BME280;50095;53.336;-1.488;2022-09-02T05:12:50;100089.13;;;19.14;57.34
61914;BME280;50095;53.336;-1.488;2022-09-02T05:15:18;100084.76;;;19.30;57.41
61914;BME280;50095;53.336;-1.488;2022-09-02T05:17:45;100089.34;;;19.12;57.61
61914;BME280;50095;53.336;-1.488;2022-09-02T05:20:13;100083.16;;;19.38;57.02
61914;BME280;50095;53.336;-1.488;2022-09-02T05:22:40;100082.51;;;19.59;56.67
61914;BME280;50095;53.336;-1.488;2022-09-02T05:25:09;100081.19;;;19.29;56.75
61914;BME280;50095;53.336;-1.488;2022-09-02T05:27:37;100081.39;;;19.75;56.16
61914;BME280;50095;53.336;-1.488;2022-09-02T05:30:05;100080.26;;;19.84;56.53
61914;BME280;50095;53.336;-1.488;2022-09-02T05:32:33;100079.47;;;19.33;56.71
61914;BME280;50095;53.336;-1.488;2022-09-02T05:35:00;100081.81;;;18.53;58.63
61914;BME280;50095;53.336;-1.488;2022-09-02T05:37:27;100081.95;;;18.69;58.76
61914;BME280;50095;53.336;-1.488;2022-09-02T05:39:54;100078.73;;;18.71;58.31
61914;BME280;50095;53.336;-1.488;2022-09-02T05:42:23;100080.97;;;19.08;58.15
61914;BME280;50095;53.336;-1.488;2022-09-02T05:44:50;100078.06;;;19.00;57.96
61914;BME280;50095;53.336;-1.488;2022-09-02T05:47:17;100076.99;;;19.15;57.63
61914;BME280;50095;53.336;-1.488;2022-09-02T05:49:45;100078.21;;;18.94;57.74
61914;BME280;50095;53.336;-1.488;2022-09-02T05:52:12;100079.57;;;18.83;58.23
61914;BME280;50095;53.336;-1.488;2022-09-02T05:54:40;100078.48;;;18.89;58.13
61914;BME280;50095;53.336;-1.488;2022-09-02T05:57:09;100079.89;;;18.95;58.38
61914;BME280;50095;53.336;-1.488;2022-09-02T05:59:44;100078.19;;;19.05;58.70
61914;BME280;50095;53.336;-1.488;2022-09-02T06:02:14;100075.12;;;18.86;57.60
61914;BME280;50095;53.336;-1.488;2022-09-02T06:04:44;100076.81;;;19.11;57.52
61914;BME280;50095;53.336;-1.488;2022-09-02T06:07:14;100080.51;;;18.50;58.87
61914;BME280;50095;53.336;-1.488;2022-09-02T06:09:42;100083.29;;;18.72;58.53
61914;BME280;50095;53.336;-1.488;2022-09-02T06:12:10;100081.61;;;18.73;58.82
61914;BME280;50095;53.336;-1.488;2022-09-02T06:14:38;100081.88;;;18.66;59.39
61914;BME280;50095;53.336;-1.488;2022-09-02T06:17:06;100080.07;;;19.12;58.35
61914;BME280;50095;53.336;-1.488;2022-09-02T06:19:34;100079.36;;;18.82;58.66
61914;BME280;50095;53.336;-1.488;2022-09-02T06:22:03;100079.06;;;19.16;58.34
61914;BME280;50095;53.336;-1.488;2022-09-02T06:24:31;100076.91;;;18.50;59.12
61914;BME280;50095;53.336;-1.488;2022-09-02T06:26:59;100072.59;;;19.14;57.61
61914;BME280;50095;53.336;-1.488;2022-09-02T06:29:27;100072.82;;;19.21;57.49
61914;BME280;50095;53.336;-1.488;2022-09-02T06:31:54;100073.08;;;19.73;56.54
61914;BME280;50095;53.336;-1.488;2022-09-02T06:34:22;100074.28;;;19.48;56.61
61914;BME280;50095;53.336;-1.488;2022-09-02T06:36:50;100078.77;;;18.98;57.83
61914;BME280;50095;53.336;-1.488;2022-09-02T06:39:20;100076.21;;;19.05;58.48
61914;BME280;50095;53.336;-1.488;2022-09-02T06:41:47;100077.36;;;18.92;58.61
61914;BME280;50095;53.336;-1.488;2022-09-02T06:44:16;100075.66;;;18.98;59.16
61914;BME280;50095;53.336;-1.488;2022-09-02T06:46:46;100075.45;;;18.47;59.30
61914;BME280;50095;53.336;-1.488;2022-09-02T06:49:15;100069.65;;;18.96;58.14
61914;BME280;50095;53.336;-1.488;2022-09-02T06:51:45;100066.54;;;18.93;58.10
61914;BME280;50095;53.336;-1.488;2022-09-02T06:54:16;100063.15;;;18.97;58.65
61914;BME280;50095;53.336;-1.488;2022-09-02T06:56:44;100057.78;;;19.29;57.12
61914;BME280;50095;53.336;-1.488;2022-09-02T06:59:11;100053.41;;;19.49;56.65
61914;BME280;50095;53.336;-1.488;2022-09-02T07:01:39;100052.24;;;19.06;56.90
61914;BME280;50095;53.336;-1.488;2022-09-02T07:04:06;100049.35;;;19.09;56.91
61914;BME280;50095;53.336;-1.488;2022-09-02T07:06:35;100051.82;;;19.97;55.75
61914;BME280;50095;53.336;-1.488;2022-09-02T07:09:03;100049.25;;;19.78;55.89
61914;BME280;50095;53.336;-1.488;2022-09-02T07:11:31;100045.66;;;19.30;57.04
61914;BME280;50095;53.336;-1.488;2022-09-02T07:13:59;100044.41;;;19.55;56.58
61914;BME280;50095;53.336;-1.488;2022-09-02T07:16:28;100044.37;;;19.38;56.12
61914;BME280;50095;53.336;-1.488;2022-09-02T07:18:56;100043.90;;;19.48;56.07
61914;BME280;50095;53.336;-1.488;2022-09-02T07:21:23;100040.97;;;19.90;55.55
61914;BME280;50095;53.336;-1.488;2022-09-02T07:23:51;100039.47;;;19.60;54.89
61914;BME280;50095;53.336;-1.488;2022-09-02T07:26:19;100036.06;;;19.93;54.89
61914;BME280;50095;53.336;-1.488;2022-09-02T07:28:46;100036.81;;;19.79;54.33
61914;BME280;50095;53.336;-1.488;2022-09-02T07:31:15;100036.16;;;20.26;53.86
61914;BME280;50095;53.336;-1.488;2022-09-02T07:33:43;100039.24;;;20.50;53.02
61914;BME280;50095;53.336;-1.488;2022-09-02T07:36:12;100040.52;;;20.94;51.35
61914;BME280;50095;53.336;-1.488;2022-09-02T07:38:41;100038.88;;;20.86;51.44
61914;BME280;50095;53.336;-1.488;2022-09-02T07:41:09;100039.48;;;20.82;52.47
61914;BME280;50095;53.336;-1.488;2022-09-02T07:43:37;100032.85;;;21.29;51.30
61914;BME280;50095;53.336;-1.488;2022-09-02T07:46:06;100027.14;;;20.81;50.94
61914;BME280;50095;53.336;-1.488;2022-09-02T07:48:34;100021.82;;;20.95;51.00
61914;BME280;50095;53.336;-1.488;2022-09-02T07:51:03;100025.18;;;21.11;51.17
61914;BME280;50095;53.336;-1.488;2022-09-02T07:53:31;100025.03;;;20.50;52.04
61914;BME280;50095;53.336;-1.488;2022-09-02T07:55:59;100024.28;;;20.73;52.00
61914;BME280;50095;53.336;-1.488;2022-09-02T07:58:27;100020.83;;;20.34;52.56
61914;BME280;50095;53.336;-1.488;2022-09-02T08:00:55;100018.65;;;21.24;50.84
61914;BME280;50095;53.336;-1.488;2022-09-02T08:03:23;100018.54;;;20.72;52.12
61914;BME280;50095;53.336;-1.488;2022-09-02T08:05:52;100019.90;;;20.53;52.38
61914;BME280;50095;53.336;-1.488;2022-09-02T08:08:20;100018.00;;;19.77;53.56
61914;BME280;50095;53.336;-1.488;2022-09-02T08:10:48;100015.17;;;20.56;52.93
61914;BME280;50095;53.336;-1.488;2022-09-02T08:13:16;100015.53;;;21.22;51.70
61914;BME280;50095;53.336;-1.488;2022-09-02T08:15:44;100015.30;;;21.21;50.89
61914;BME280;50095;53.336;-1.488;2022-09-02T08:18:11;100019.52;;;20.21;52.79
61914;BME280;50095;53.336;-1.488;2022-09-02T08:20:38;100014.46;;;20.41;52.73
61914;BME280;50095;53.336;-1.488;2022-09-02T08:23:07;100010.86;;;20.49;52.73
61914;BME280;50095;53.336;-1.488;2022-09-02T08:25:35;100008.74;;;19.99;53.65
61914;BME280;50095;53.336;-1.488;2022-09-02T08:28:02;100004.09;;;20.72;52.29
61914;BME280;50095;53.336;-1.488;2022-09-02T08:30:29;100002.30;;;21.16;51.75
61914;BME280;50095;53.336;-1.488;2022-09-02T08:32:57;100001.92;;;20.94;51.29
61914;BME280;50095;53.336;-1.488;2022-09-02T08:35:25;100002.47;;;20.79;52.25
61914;BME280;50095;53.336;-1.488;2022-09-02T08:37:53;100004.84;;;20.68;52.42
61914;BME280;50095;53.336;-1.488;2022-09-02T08:40:22;100004.16;;;21.02;51.80
61914;BME280;50095;53.336;-1.488;2022-09-02T08:42:53;100002.91;;;20.88;52.36
61914;BME280;50095;53.336;-1.488;2022-09-02T08:45:27;100002.10;;;20.37;53.40
61914;BME280;50095;53.336;-1.488;2022-09-02T08:48:02;99999.79;;;20.93;51.81
61914;BME280;50095;53.336;-1.488;2022-09-02T08:50:31;100000.08;;;20.88;52.00
61914;BME280;50095;53.336;-1.488;2022-09-02T08:53:06;99993.56;;;21.14;51.33
61914;BME280;50095;53.336;-1.488;2022-09-02T08:55:39;99996.87;;;20.69;51.74
61914;BME280;50095;53.336;-1.488;2022-09-02T08:58:12;99993.90;;;20.31;53.22
61914;BME280;50095;53.336;-1.488;2022-09-02T09:00:45;99992.26;;;20.22;53.86
61914;BME280;50095;53.336;-1.488;2022-09-02T09:03:22;99988.96;;;20.64;52.57
61914;BME280;50095;53.336;-1.488;2022-09-02T09:05:59;99980.48;;;20.78;53.14
61914;BME280;50095;53.336;-1.488;2022-09-02T09:08:35;99983.31;;;20.81;52.52
61914;BME280;50095;53.336;-1.488;2022-09-02T09:11:14;99986.57;;;20.76;52.44
61914;BME280;50095;53.336;-1.488;2022-09-02T09:13:55;99986.12;;;20.40;53.31
61914;BME280;50095;53.336;-1.488;2022-09-02T09:16:32;99982.48;;;21.13;51.97
61914;BME280;50095;53.336;-1.488;2022-09-02T09:19:07;99972.47;;;21.33;50.61
61914;BME280;50095;53.336;-1.488;2022-09-02T09:21:38;99967.46;;;21.82;50.51
61914;BME280;50095;53.336;-1.488;2022-09-02T09:24:25;99964.22;;;21.10;52.24
61914;BME280;50095;53.336;-1.488;2022-09-02T09:26:54;99967.03;;;20.46;53.42
61914;BME280;50095;53.336;-1.488;2022-09-02T09:29:22;99969.67;;;20.36;54.78
61914;BME280;50095;53.336;-1.488;2022-09-02T09:31:55;99965.96;;;21.29;54.80
61914;BME280;50095;53.336;-1.488;2022-09-02T09:34:23;99956.04;;;21.73;52.02
61914;BME280;50095;53.336;-1.488;2022-09-02T09:36:53;99951.95;;;21.82;51.59
61914;BME280;50095;53.336;-1.488;2022-09-02T09:39:26;99944.15;;;22.25;50.23
61914;BME280;50095;53.336;-1.488;2022-09-02T09:41:55;99944.36;;;21.85;51.07
61914;BME280;50095;53.336;-1.488;2022-09-02T09:44:54;99938.63;;;22.29;49.52
61914;BME280;50095;53.336;-1.488;2022-09-02T09:47:24;99935.17;;;21.42;51.96
61914;BME280;50095;53.336;-1.488;2022-09-02T09:49:53;99938.44;;;21.15;52.42
61914;BME280;50095;53.336;-1.488;2022-09-02T09:52:35;99942.73;;;20.45;54.11
61914;BME280;50095;53.336;-1.488;2022-09-02T09:55:10;99936.79;;;20.51;53.24
61914;BME280;50095;53.336;-1.488;2022-09-02T09:57:38;99934.93;;;21.26;53.01
61914;BME280;50095;53.336;-1.488;2022-09-02T10:00:18;99940.82;;;20.17;54.33
61914;BME280;50095;53.336;-1.488;2022-09-02T10:02:48;99928.45;;;20.95;53.25
61914;BME280;50095;53.336;-1.488;2022-09-02T10:05:27;99927.06;;;20.59;53.20
61914;BME280;50095;53.336;-1.488;2022-09-02T10:07:58;99919.43;;;20.68;53.27
61914;BME280;50095;53.336;-1.488;2022-09-02T10:10:29;99918.27;;;21.09;52.18
61914;BME280;50095;53.336;-1.488;2022-09-02T10:13:00;99918.21;;;21.03;52.49
61914;BME280;50095;53.336;-1.488;2022-09-02T10:15:35;99915.05;;;21.22;52.09
61914;BME280;50095;53.336;-1.488;2022-09-02T10:18:14;99909.95;;;22.39;50.18
61914;BME280;50095;53.336;-1.488;2022-09-02T10:20:53;99904.73;;;21.57;52.08
61914;BME280;50095;53.336;-1.488;2022-09-02T10:23:30;99898.01;;;21.51;51.75
61914;BME280;50095;53.336;-1.488;2022-09-02T10:26:11;99897.62;;;21.29;52.24
61914;BME280;50095;53.336;-1.488;2022-09-02T10:28:57;99896.22;;;22.01;51.11
61914;BME280;50095;53.336;-1.488;2022-09-02T10:31:33;99897.10;;;21.59;51.15
61914;BME280;50095;53.336;-1.488;2022-09-02T10:34:12;99894.05;;;22.35;49.66
61914;BME280;50095;53.336;-1.488;2022-09-02T10:37:00;99894.68;;;22.35;49.58
61914;BME280;50095;53.336;-1.488;2022-09-02T10:39:44;99894.73;;;22.25;49.33
61914;BME280;50095;53.336;-1.488;2022-09-02T10:42:22;99890.14;;;22.54;48.22
61914;BME280;50095;53.336;-1.488;2022-09-02T10:45:00;99885.75;;;22.31;49.17
61914;BME280;50095;53.336;-1.488;2022-09-02T10:47:34;99882.59;;;22.06;49.67
61914;BME280;50095;53.336;-1.488;2022-09-02T10:50:11;99882.73;;;22.25;49.08
61914;BME280;50095;53.336;-1.488;2022-09-02T10:52:52;99882.74;;;21.92;50.46
61914;BME280;50095;53.336;-1.488;2022-09-02T10:55:29;99877.77;;;21.75;50.15
61914;BME280;50095;53.336;-1.488;2022-09-02T10:58:02;99874.79;;;22.16;49.35
61914;BME280;50095;53.336;-1.488;2022-09-02T11:00:31;99870.71;;;22.56;48.22
61914;BME280;50095;53.336;-1.488;2022-09-02T11:03:06;99869.57;;;23.10;48.09
61914;BME280;50095;53.336;-1.488;2022-09-02T11:05:42;99867.25;;;22.94;47.19
61914;BME280;50095;53.336;-1.488;2022-09-02T11:08:16;99865.17;;;22.31;48.47
61914;BME280;50095;53.336;-1.488;2022-09-02T11:10:49;99862.65;;;22.76;47.82
61914;BME280;50095;53.336;-1.488;2022-09-02T11:13:25;99864.34;;;23.17;46.58
61914;BME280;50095;53.336;-1.488;2022-09-02T11:15:58;99860.05;;;23.13;45.78
61914;BME280;50095;53.336;-1.488;2022-09-02T11:18:34;99855.07;;;23.25;46.16
61914;BME280;50095;53.336;-1.488;2022-09-02T11:21:09;99859.65;;;23.17;46.36
61914;BME280;50095;53.336;-1.488;2022-09-02T11:23:42;99854.37;;;22.99;45.91
61914;BME280;50095;53.336;-1.488;2022-09-02T11:26:16;99848.05;;;23.11;45.70
61914;BME280;50095;53.336;-1.488;2022-09-02T11:28:51;99843.38;;;23.02;45.84
61914;BME280;50095;53.336;-1.488;2022-09-02T11:31:27;99839.38;;;23.20;45.12
61914;BME280;50095;53.336;-1.488;2022-09-02T11:33:59;99834.12;;;22.85;45.40
61914;BME280;50095;53.336;-1.488;2022-09-02T11:36:28;99828.55;;;23.23;45.12
61914;BME280;50095;53.336;-1.488;2022-09-02T11:39:00;99824.84;;;22.90;45.98
61914;BME280;50095;53.336;-1.488;2022-09-02T11:41:44;99819.64;;;22.87;45.88
61914;BME280;50095;53.336;-1.488;2022-09-02T11:44:36;99812.44;;;23.29;44.32
61914;BME280;50095;53.336;-1.488;2022-09-02T11:47:21;99811.02;;;23.22;44.42
61914;BME280;50095;53.336;-1.488;2022-09-02T11:50:08;99806.02;;;23.53;43.17
61914;BME280;50095;53.336;-1.488;2022-09-02T11:52:52;99800.63;;;23.79;43.99
61914;BME280;50095;53.336;-1.488;2022-09-02T11:55:26;99794.62;;;23.89;43.48
61914;BME280;50095;53.336;-1.488;2022-09-02T11:57:56;99792.59;;;23.44;43.89
61914;BME280;50095;53.336;-1.488;2022-09-02T12:00:27;99789.90;;;22.84;45.72
61914;BME280;50095;53.336;-1.488;2022-09-02T12:03:07;99786.36;;;22.53;46.25
61914;BME280;50095;53.336;-1.488;2022-09-02T12:06:06;99788.18;;;23.05;45.41
61914;BME280;50095;53.336;-1.488;2022-09-02T12:09:08;99778.28;;;23.16;46.07
61914;BME280;50095;53.336;-1.488;2022-09-02T12:11:41;99777.74;;;23.20;45.26
61914;BME280;50095;53.336;-1.488;2022-09-02T12:14:10;99780.61;;;23.25;44.20
61914;BME280;50095;53.336;-1.488;2022-09-02T12:18:27;99770.14;;;23.54;44.80
61914;BME280;50095;53.336;-1.488;2022-09-02T12:21:07;99765.01;;;23.40;44.33
61914;BME280;50095;53.336;-1.488;2022-09-02T12:24:10;99762.24;;;23.20;44.45
61914;BME280;50095;53.336;-1.488;2022-09-02T12:27:51;99758.12;;;23.61;43.90
61914;BME280;50095;53.336;-1.488;2022-09-02T12:31:12;99762.82;;;23.41;43.33
61914;BME280;50095;53.336;-1.488;2022-09-02T12:33:41;99760.81;;;23.45;43.29
61914;BME280;50095;53.336;-1.488;2022-09-02T12:36:44;99753.63;;;23.50;42.60
61914;BME280;50095;53.336;-1.488;2022-09-02T12:39:52;99756.06;;;23.33;43.73
61914;BME280;50095;53.336;-1.488;2022-09-02T12:42:25;99754.83;;;23.61;43.72
61914;BME280;50095;53.336;-1.488;2022-09-02T12:45:04;99750.30;;;24.17;42.47
61914;BME280;50095;53.336;-1.488;2022-09-02T12:47:46;99744.28;;;23.80;41.84
61914;BME280;50095;53.336;-1.488;2022-09-02T12:50:24;99739.33;;;23.48;42.30
61914;BME280;50095;53.336;-1.488;2022-09-02T12:53:10;99730.92;;;23.89;40.48
61914;BME280;50095;53.336;-1.488;2022-09-02T12:55:39;99733.00;;;24.08;40.22
61914;BME280;50095;53.336;-1.488;2022-09-02T12:58:20;99732.91;;;24.07;40.61
61914;BME280;50095;53.336;-1.488;2022-09-02T13:00:58;99734.74;;;23.58;41.72
61914;BME280;50095;53.336;-1.488;2022-09-02T13:03:53;99733.59;;;23.80;41.49
61914;BME280;50095;53.336;-1.488;2022-09-02T13:06:33;99728.96;;;24.07;42.24